Time;durP1;ratioP1;P1;durP2;ratioP2;P2;SDS_P1;SDS_P2;PMS_P1;PMS_P2;Temp;Humidity;BMP_temperature;BMP_pressure;BME280_temperature;BME280_humidity;BME280_pressure;Samples;Min_cycle;Max_cycle;Signal;HPM_P1;HPM_P2
2024/01/10 00:01:27;;;;;;;21.85;11.05;;;;;;;-0.36;89.42;100969.81;5070287;28;20418;-25
2024/01/10 00:03:54;;;;;;;18.70;10.60;;;;;;;-0.33;85.34;100973.97;5070507;28;20032;-26
2024/01/10 00:06:20;;;;;;;22.08;11.05;;;;;;;-0.22;84.61;100974.94;5070063;28;20031;-25
2024/01/10 00:08:45;;;;;;;21.33;11.00;;;;;;;-0.21;86.21;100981.00;5070420;28;20028;-25
2024/01/10 00:11:10;;;;;;;21.05;10.88;;;;;;;0.22;83.79;100972.81;5070345;28;20075;-25
2024/01/10 00:13:36;;;;;;;20.95;10.98;;;;;;;-0.01;86.24;100977.88;5070391;28;20078;-25
2024/01/10 00:16:01;;;;;;;22.48;10.68;;;;;;;0.14;84.19;100988.25;5069645;28;20464;-25
2024/01/10 00:18:27;;;;;;;21.10;10.60;;;;;;;0.35;81.93;100986.75;5070181;28;20028;-25
2024/01/10 00:20:55;;;;;;;24.70;11.80;;;;;;;0.30;84.12;100985.38;5070196;28;20444;-25
2024/01/10 00:23:21;;;;;;;24.00;11.40;;;;;;;0.46;82.12;100980.78;5069838;28;20020;-25
2024/01/10 00:25:47;;;;;;;25.13;11.73;;;;;;;0.62;82.21;100984.91;5069874;28;20032;-25
2024/01/10 00:28:13;;;;;;;21.98;11.35;;;;;;;0.36;81.06;100988.44;5069805;28;20058;-25
2024/01/10 00:30:39;;;;;;;19.92;10.73;;;;;;;0.11;80.26;100988.44;5069958;28;20099;-25
2024/01/10 00:33:05;;;;;;;23.20;12.38;;;;;;;-0.17;83.31;100999.94;5069884;28;20036;-25
2024/01/10 00:35:31;;;;;;;21.00;11.10;;;;;;;0.06;80.83;100999.25;5069838;28;20159;-24
2024/01/10 00:37:57;;;;;;;23.40;11.57;;;;;;;-0.15;81.64;101008.53;5070212;28;20104;-25
2024/01/10 00:40:23;;;;;;;25.38;12.98;;;;;;;0.30;79.78;100994.06;5069665;28;20373;-25
2024/01/10 00:42:48;;;;;;;26.02;12.63;;;;;;;0.31;78.54;100995.75;5069758;28;20466;-25
2024/01/10 00:45:13;;;;;;;26.35;12.23;;;;;;;0.25;79.54;100998.81;5069336;28;20038;-25
2024/01/10 00:47:39;;;;;;;23.55;11.57;;;;;;;0.43;78.56;101008.94;5068725;28;20037;-25
2024/01/10 00:50:05;;;;;;;25.60;12.55;;;;;;;0.01;81.49;101003.13;5069420;28;20055;-25
2024/01/10 00:52:30;;;;;;;25.83;12.70;;;;;;;0.23;80.39;101012.94;5069225;28;20057;-25
2024/01/10 00:54:56;;;;;;;28.08;13.15;;;;;;;0.23;80.07;101005.94;5069091;28;20028;-25
2024/01/10 00:57:21;;;;;;;28.05;13.55;;;;;;;0.42;79.18;100996.78;5068825;28;20033;-25
2024/01/10 00:59:47;;;;;;;26.98;12.35;;;;;;;0.13;80.22;101003.13;5069454;28;20103;-25
2024/01/10 01:02:12;;;;;;;24.40;11.98;;;;;;;0.31;78.16;101006.25;5069405;28;20380;-25
2024/01/10 01:04:38;;;;;;;23.42;12.25;;;;;;;0.17;79.98;101008.97;5069035;28;20024;-25
2024/01/10 01:07:03;;;;;;;24.45;12.20;;;;;;;0.29;79.45;101005.50;5068542;28;20475;-25
2024/01/10 01:09:28;;;;;;;22.30;11.27;;;;;;;0.14;78.47;101001.34;5068640;28;20488;-25
2024/01/10 01:11:54;;;;;;;23.23;10.60;;;;;;;0.04;79.86;101005.50;5068696;28;20115;-25
2024/01/10 01:14:19;;;;;;;18.35;9.75;;;;;;;-0.23;81.02;101001.19;5068459;28;20091;-25
2024/01/10 01:16:44;;;;;;;21.17;10.13;;;;;;;-0.41;80.09;100962.25;5068336;28;20083;-25
2024/01/10 01:19:10;;;;;;;20.77;10.10;;;;;;;-0.17;80.41;101006.03;5069057;28;20025;-25
2024/01/10 01:21:35;;;;;;;24.42;11.60;;;;;;;0.29;80.15;101000.28;5068828;28;20067;-25
2024/01/10 01:24:00;;;;;;;21.90;10.88;;;;;;;0.06;83.25;100996.63;5069023;28;20138;-26
2024/01/10 01:26:26;;;;;;;26.55;11.80;;;;;;;0.99;83.69;101009.34;5069105;28;20055;-25
2024/01/10 01:28:51;;;;;;;18.05;10.23;;;;;;;0.78;80.67;101009.06;5073338;28;20037;-25
2024/01/10 01:31:17;;;;;;;22.17;11.70;;;;;;;1.05;85.45;101002.78;5074087;28;20033;-26
2024/01/10 01:33:43;;;;;;;21.88;10.90;;;;;;;0.71;83.12;101008.69;5073669;28;20364;-26
2024/01/10 01:36:08;;;;;;;20.60;10.82;;;;;;;0.62;83.84;101009.34;5073333;28;20012;-25
2024/01/10 01:38:34;;;;;;;24.45;10.68;;;;;;;0.52;83.33;101005.69;5072387;28;20086;-25
2024/01/10 01:40:59;;;;;;;22.50;11.80;;;;;;;0.48;82.53;101004.25;5073097;28;20047;-26
2024/01/10 01:43:25;;;;;;;22.50;11.55;;;;;;;0.45;83.05;101009.69;5072865;28;20025;-25
2024/01/10 01:45:53;;;;;;;22.27;11.05;;;;;;;0.80;82.61;100995.88;5072838;28;20027;-26
2024/01/10 01:48:23;;;;;;;22.60;11.32;;;;;;;0.55;82.97;100998.47;5073402;28;20099;-26
2024/01/10 01:50:55;;;;;;;27.08;13.65;;;;;;;0.50;82.37;101007.59;5072914;28;20101;-26
2024/01/10 01:53:22;;;;;;;22.83;11.25;;;;;;;0.27;84.33;101003.94;5072914;28;20020;-26
2024/01/10 01:55:48;;;;;;;23.50;11.70;;;;;;;0.25;84.09;101005.81;5073392;28;20044;-26
2024/01/10 01:58:14;;;;;;;24.45;12.57;;;;;;;0.36;84.30;100991.06;5072965;28;20063;-26
2024/01/10 02:00:39;;;;;;;22.67;11.13;;;;;;;0.38;84.65;100991.78;5073403;28;20405;-26
2024/01/10 02:03:06;;;;;;;25.33;11.40;;;;;;;0.31;84.54;100987.91;5073587;28;20033;-26
2024/01/10 02:05:32;;;;;;;23.20;11.38;;;;;;;0.13;84.43;100983.94;5073132;28;20020;-26
2024/01/10 02:07:58;;;;;;;25.52;12.85;;;;;;;0.15;85.76;100989.91;5073283;28;20389;-25
2024/01/10 02:10:23;;;;;;;25.73;12.05;;;;;;;0.07;84.36;100994.84;5073314;28;20497;-26
2024/01/10 02:12:49;;;;;;;22.40;12.05;;;;;;;0.06;85.56;100985.28;5072985;28;20022;-25
2024/01/10 02:15:15;;;;;;;25.10;13.18;;;;;;;0.24;83.26;100975.34;5064646;28;20460;-26
2024/01/10 02:17:40;;;;;;;24.33;12.73;;;;;;;0.31;84.19;100979.22;5053186;28;20100;-25
2024/01/10 02:20:12;;;;;;;26.73;13.20;;;;;;;0.07;83.48;100979.97;5053034;28;20413;-26
2024/01/10 02:22:38;;;;;;;26.88;13.43;;;;;;;0.01;83.77;100963.84;5061299;28;20070;-25
2024/01/10 02:25:06;;;;;;;24.98;12.40;;;;;;;0.08;82.96;100976.41;5072704;28;20024;-26
2024/01/10 02:27:32;;;;;;;24.35;12.25;;;;;;;0.07;82.68;100976.50;5072844;28;20403;-26
2024/01/10 02:29:59;;;;;;;24.13;11.77;;;;;;;-0.23;84.03;100964.56;5072922;28;20031;-26
2024/01/10 02:32:24;;;;;;;25.83;12.60;;;;;;;0.12;84.31;100979.66;5072857;28;20043;-26
2024/01/10 02:34:50;;;;;;;27.85;12.65;;;;;;;-0.07;83.82;100965.22;5072618;28;20029;-25
2024/01/10 02:37:15;;;;;;;23.85;12.35;;;;;;;-0.04;83.71;100970.25;5072348;28;20063;-26
2024/01/10 02:39:41;;;;;;;24.45;11.57;;;;;;;-0.01;83.66;100970.00;5072670;28;20040;-26
2024/01/10 02:42:06;;;;;;;22.05;10.60;;;;;;;-0.19;83.06;100968.66;5072747;28;20526;-25
2024/01/10 02:44:31;;;;;;;23.20;11.15;;;;;;;-0.25;83.37;100969.06;5072435;28;20051;-24
2024/01/10 02:46:57;;;;;;;20.88;10.50;;;;;;;-0.29;84.37;100971.03;5072561;28;20016;-24
2024/01/10 02:49:22;;;;;;;19.85;10.35;;;;;;;-0.07;84.35;100962.59;5072586;28;20032;-26
2024/01/10 02:51:48;;;;;;;22.30;11.30;;;;;;;-0.27;83.20;100969.16;5072456;28;20400;-24
2024/01/10 02:54:13;;;;;;;23.00;11.98;;;;;;;-0.09;83.47;100969.72;5072275;28;20025;-25
2024/01/10 02:56:39;;;;;;;18.10;9.85;;;;;;;-0.13;83.35;100962.16;5072426;28;20127;-25
2024/01/10 02:59:04;;;;;;;23.48;11.45;;;;;;;-0.16;84.55;100971.06;5072216;28;20028;-24
2024/01/10 03:01:29;;;;;;;22.35;10.77;;;;;;;0.02;82.97;100973.38;5072072;28;20048;-25
2024/01/10 03:03:55;;;;;;;23.70;10.63;;;;;;;-0.12;83.75;100974.31;5072064;28;20453;-25
2024/01/10 03:06:20;;;;;;;19.98;10.18;;;;;;;0.02;82.98;100966.38;5071656;28;20052;-25
2024/01/10 03:08:45;;;;;;;17.27;9.52;;;;;;;0.18;81.89;100963.53;5071475;28;20029;-25
2024/01/10 03:11:11;;;;;;;21.90;10.20;;;;;;;-0.08;81.98;100963.50;5071717;28;20089;-25
2024/01/10 03:13:37;;;;;;;19.60;10.20;;;;;;;-0.21;80.63;100965.28;5071891;28;20031;-38
2024/01/10 03:16:03;;;;;;;19.30;10.00;;;;;;;-0.29;81.12;100963.19;5057139;28;20103;-37
2024/01/10 03:18:28;;;;;;;18.15;9.85;;;;;;;-0.02;82.43;100960.50;5051904;28;20029;-36
2024/01/10 03:20:54;;;;;;;19.35;10.27;;;;;;;-0.28;82.66;100951.81;5052768;28;20028;-37
2024/01/10 03:23:19;;;;;;;20.45;9.88;;;;;;;-0.16;83.36;100959.75;5063689;28;20037;-35
2024/01/10 03:25:45;;;;;;;19.85;10.20;;;;;;;-0.07;82.47;100957.34;5059548;28;20102;-38
2024/01/10 03:28:10;;;;;;;20.30;10.40;;;;;;;0.02;81.68;100955.03;5071673;28;20025;-38
2024/01/10 03:30:36;;;;;;;19.80;10.27;;;;;;;-0.06;81.78;100958.19;5070440;28;20502;-37
2024/01/10 03:33:01;;;;;;;20.58;9.73;;;;;;;-0.21;83.42;100960.91;5071642;28;20038;-36
2024/01/10 03:35:26;;;;;;;21.52;10.93;;;;;;;-0.15;82.51;100962.28;5071418;28;20392;-38
2024/01/10 03:37:52;;;;;;;19.52;10.48;;;;;;;-0.07;82.20;100965.22;5070869;28;20028;-36
2024/01/10 03:40:17;;;;;;;21.10;10.45;;;;;;;-0.33;82.80;100959.13;5071446;28;20028;-35
2024/01/10 03:42:42;;;;;;;21.73;10.95;;;;;;;-0.18;82.83;100967.72;5071214;28;20029;-36
2024/01/10 03:45:08;;;;;;;23.67;10.63;;;;;;;-0.04;81.28;100969.38;5070745;28;20345;-38
2024/01/10 03:47:33;;;;;;;20.77;10.15;;;;;;;-0.08;83.37;100962.69;5072268;28;20029;-38
2024/01/10 03:49:58;;;;;;;18.60;10.23;;;;;;;-0.27;83.08;100961.31;5069906;28;20056;-38
2024/01/10 03:52:24;;;;;;;22.58;10.13;;;;;;;-0.27;82.57;100958.69;5071035;28;20491;-37
2024/01/10 03:54:49;;;;;;;21.50;10.52;;;;;;;-0.44;81.08;100965.09;5071304;28;20472;-36
2024/01/10 03:57:14;;;;;;;20.55;10.52;;;;;;;-0.61;80.71;100965.34;5081850;28;20348;-26
2024/01/10 03:59:40;;;;;;;20.15;10.15;;;;;;;-0.49;81.43;100967.16;5083329;28;20082;-39
2024/01/10 04:02:05;;;;;;;18.52;10.07;;;;;;;-0.75;81.54;100968.88;5084106;28;20640;-39
2024/01/10 04:04:30;;;;;;;20.60;10.40;;;;;;;-0.75;81.54;100974.09;5075574;28;20028;-37
2024/01/10 04:06:56;;;;;;;19.88;10.52;;;;;;;-0.58;80.88;100966.94;5070086;28;20073;-39
2024/01/10 04:09:21;;;;;;;19.35;9.93;;;;;;;-0.54;81.25;100956.16;5070133;28;20024;-25
2024/01/10 04:11:46;;;;;;;21.95;9.95;;;;;;;-0.52;81.68;100969.13;5070255;28;20107;-25
2024/01/10 04:14:12;;;;;;;22.08;9.90;;;;;;;-0.54;83.15;100968.41;5070339;28;20365;-25
2024/01/10 04:16:37;;;;;;;19.85;9.80;;;;;;;-0.26;84.48;100970.84;5069907;28;20044;-38
2024/01/10 04:19:03;;;;;;;19.63;9.73;;;;;;;-0.55;81.51;100970.19;5069984;28;20439;-35
2024/01/10 04:21:28;;;;;;;19.33;10.25;;;;;;;-0.15;80.47;100977.13;5069968;28;20452;-38
2024/01/10 04:23:54;;;;;;;19.52;9.60;;;;;;;-0.25;82.42;100979.53;5069796;28;20020;-36
2024/01/10 04:26:19;;;;;;;21.95;11.20;;;;;;;-0.34;82.08;100985.38;5068797;28;20063;-40
2024/01/10 04:28:44;;;;;;;20.33;10.02;;;;;;;-0.45;81.45;100976.47;5069074;28;20110;-38
2024/01/10 04:31:10;;;;;;;21.60;10.15;;;;;;;-0.29;81.81;100970.22;5068957;28;20060;-38
2024/01/10 04:33:36;;;;;;;18.75;9.63;;;;;;;-0.50;82.26;100985.56;5069728;28;20476;-38
2024/01/10 04:36:01;;;;;;;21.38;10.35;;;;;;;-0.35;81.88;100987.16;5069402;28;20081;-39
2024/01/10 04:38:27;;;;;;;22.30;10.32;;;;;;;-0.54;83.17;100995.38;5069338;28;20449;-38
2024/01/10 04:40:52;;;;;;;18.00;9.52;;;;;;;-0.53;82.22;101006.69;5069167;28;20028;-37
2024/01/10 04:43:18;;;;;;;19.80;9.82;;;;;;;-0.66;82.45;100993.59;5069183;28;20058;-38
2024/01/10 04:45:43;;;;;;;17.52;9.55;;;;;;;-0.41;82.01;100995.41;5068766;28;20059;-40
2024/01/10 04:48:09;;;;;;;21.02;10.07;;;;;;;-0.48;82.07;101007.22;5070332;28;20089;-38
2024/01/10 04:50:35;;;;;;;20.23;10.02;;;;;;;-0.35;81.77;101000.25;5070289;28;20051;-38
2024/01/10 04:53:00;;;;;;;19.30;9.93;;;;;;;-0.37;82.72;101003.91;5070183;28;20107;-40
2024/01/10 04:55:25;;;;;;;21.50;10.10;;;;;;;-0.26;84.66;101012.72;5069726;28;20085;-36
2024/01/10 04:57:51;;;;;;;18.77;9.68;;;;;;;-0.35;82.70;101008.09;5070103;28;20436;-39
2024/01/10 05:00:16;;;;;;;21.75;10.35;;;;;;;-0.49;81.55;101014.25;5070396;28;20107;-40
2024/01/10 05:02:42;;;;;;;24.20;10.68;;;;;;;-0.36;82.47;101011.66;5070607;28;20063;-36
2024/01/10 05:05:07;;;;;;;23.92;10.70;;;;;;;-0.28;81.98;101016.38;5070391;28;20035;-36
2024/01/10 05:07:32;;;;;;;20.95;10.45;;;;;;;-0.22;81.27;101018.59;5070530;28;20491;-40
2024/01/10 05:09:58;;;;;;;24.40;12.05;;;;;;;-0.26;81.53;101020.56;5070389;28;20039;-39
2024/01/10 05:12:23;;;;;;;27.13;12.63;;;;;;;-0.23;82.00;101019.50;5068930;28;20028;-37
2024/01/10 05:14:49;;;;;;;21.55;10.32;;;;;;;-0.47;81.80;101025.44;5069837;28;20028;-40
2024/01/10 05:17:14;;;;;;;25.73;12.80;;;;;;;-0.04;86.38;101021.72;5070073;28;20101;-41
2024/01/10 05:19:39;;;;;;;25.58;11.98;;;;;;;0.38;90.07;101030.22;5070571;28;20438;-39
2024/01/10 05:22:06;;;;;;;24.30;11.27;;;;;;;0.34;82.09;101021.75;5070552;28;20028;-36
2024/01/10 05:24:31;;;;;;;22.92;11.48;;;;;;;0.19;81.03;101030.63;5070064;28;20503;-37
2024/01/10 05:26:57;;;;;;;21.25;10.95;;;;;;;0.13;80.55;101028.44;5070152;28;20016;-39
2024/01/10 05:29:23;;;;;;;22.77;11.50;;;;;;;0.09;80.59;101025.19;5068985;28;20044;-38
2024/01/10 05:31:49;;;;;;;23.40;12.32;;;;;;;0.10;80.29;101026.06;5070789;28;20024;-39
2024/01/10 05:34:15;;;;;;;23.42;12.13;;;;;;;0.03;82.46;101032.63;5070414;28;20032;-38
2024/01/10 05:36:40;;;;;;;26.25;11.70;;;;;;;-0.04;82.11;101040.03;5070277;28;20039;-38
2024/01/10 05:39:05;;;;;;;24.35;11.55;;;;;;;-0.05;81.39;101043.63;5070313;28;20446;-39
2024/01/10 05:41:31;;;;;;;27.75;12.40;;;;;;;0.10;80.84;101037.34;5070599;28;20060;-37
2024/01/10 05:43:56;;;;;;;22.55;11.40;;;;;;;0.25;81.07;101045.09;5070646;28;20025;-39
2024/01/10 05:46:21;;;;;;;28.58;13.27;;;;;;;-0.12;82.09;101035.34;5069936;28;20059;-40
2024/01/10 05:48:48;;;;;;;26.65;11.95;;;;;;;-0.09;83.61;101034.31;5069676;28;20483;-37
2024/01/10 05:51:13;;;;;;;26.98;12.93;;;;;;;-0.07;80.34;101025.41;5069404;28;20059;-38
2024/01/10 05:53:39;;;;;;;24.80;12.02;;;;;;;0.15;80.54;101032.66;5069819;28;20411;-38
2024/01/10 05:56:06;;;;;;;27.73;12.40;;;;;;;0.22;79.77;101033.06;5069940;28;20082;-36
2024/01/10 05:58:31;;;;;;;23.52;11.68;;;;;;;0.10;81.68;101034.72;5070121;28;20093;-37
2024/01/10 06:00:56;;;;;;;22.02;12.23;;;;;;;-0.02;80.50;101038.16;5070137;28;20659;-39
2024/01/10 06:03:22;;;;;;;27.35;13.18;;;;;;;0.03;77.92;101043.94;5070110;28;20048;-38
2024/01/10 06:05:47;;;;;;;18.92;10.57;;;;;;;-0.15;77.00;101043.41;5070602;28;20027;-37
2024/01/10 06:08:14;;;;;;;21.45;12.10;;;;;;;0.46;76.45;101055.88;5070023;28;20487;-39
2024/01/10 06:10:39;;;;;;;24.08;11.82;;;;;;;1.06;72.01;101055.13;5070357;28;20058;-38
2024/01/10 06:13:04;;;;;;;22.98;11.63;;;;;;;0.74;74.37;101050.41;5070812;28;20020;-37
2024/01/10 06:15:30;;;;;;;25.23;12.13;;;;;;;0.23;74.90;101055.69;5073722;28;20064;-40
2024/01/10 06:17:55;;;;;;;24.83;12.65;;;;;;;0.05;76.84;101062.16;5074141;28;20039;-39
2024/01/10 06:20:21;;;;;;;23.35;12.02;;;;;;;-0.03;77.26;101054.81;5073986;28;20484;-27
2024/01/10 06:22:46;;;;;;;25.13;11.35;;;;;;;0.00;76.31;101065.09;5073791;28;20020;-27
2024/01/10 06:25:12;;;;;;;24.90;11.55;;;;;;;0.04;74.54;101066.56;5073713;28;20025;-26
2024/01/10 06:27:37;;;;;;;28.52;12.55;;;;;;;-0.24;73.99;101075.41;5073949;28;20024;-29
2024/01/10 06:30:03;;;;;;;23.00;11.48;;;;;;;-0.05;73.43;101088.94;5074040;28;20051;-26
2024/01/10 06:32:28;;;;;;;27.85;13.70;;;;;;;-0.23;75.67;101083.16;5073443;28;20054;-27
2024/01/10 06:34:54;;;;;;;27.85;13.60;;;;;;;-0.33;77.83;101099.56;5073781;28;20170;-27
2024/01/10 06:37:19;;;;;;;27.80;13.25;;;;;;;-0.57;80.37;101096.72;5073377;28;20024;-27
2024/01/10 06:39:45;;;;;;;31.15;13.68;;;;;;;-0.30;80.29;101099.38;5073508;28;20465;-27
2024/01/10 06:42:11;;;;;;;33.83;14.30;;;;;;;-0.60;81.43;101105.63;5073776;28;20029;-26
2024/01/10 06:44:37;;;;;;;31.63;14.38;;;;;;;-0.39;82.04;101100.78;5073605;28;20101;-28
2024/01/10 06:47:03;;;;;;;37.13;15.95;;;;;;;-0.33;81.70;101110.03;5073211;28;20158;-26
2024/01/10 06:49:29;;;;;;;31.55;15.65;;;;;;;-0.57;83.01;101088.88;5073761;28;20103;-27
2024/01/10 06:51:54;;;;;;;35.88;15.13;;;;;;;-0.44;83.79;101108.94;5073645;28;20775;-26
2024/01/10 06:54:20;;;;;;;32.03;14.68;;;;;;;-0.47;84.47;101116.16;5073425;28;20404;-26
2024/01/10 06:56:45;;;;;;;33.88;15.43;;;;;;;-0.47;84.29;101114.38;5073338;28;20028;-27
2024/01/10 06:59:11;;;;;;;32.50;15.30;;;;;;;-0.29;84.57;101114.09;5072898;28;20111;-26
2024/01/10 07:01:38;;;;;;;35.50;15.23;;;;;;;-0.34;84.21;101117.03;5073421;28;20033;-26
2024/01/10 07:04:04;;;;;;;31.63;15.70;;;;;;;-0.29;84.78;101117.56;5073718;28;20048;-27
2024/01/10 07:06:30;;;;;;;29.63;14.45;;;;;;;-0.07;83.16;101119.63;5073367;28;20020;-26
2024/01/10 07:08:55;;;;;;;34.50;15.73;;;;;;;-0.17;84.41;101115.94;5073322;28;20033;-27
2024/01/10 07:11:21;;;;;;;34.35;16.65;;;;;;;-0.18;85.36;101126.50;5073382;28;20032;-27
2024/01/10 07:13:47;;;;;;;32.33;15.23;;;;;;;-0.15;84.73;101124.53;5073391;28;20024;-26
2024/01/10 07:16:14;;;;;;;32.05;15.77;;;;;;;-0.22;84.76;101124.06;5073179;28;20049;-26
2024/01/10 07:18:40;;;;;;;31.67;14.90;;;;;;;0.43;87.08;101122.41;5072932;28;20449;-27
2024/01/10 07:21:06;;;;;;;38.10;16.88;;;;;;;0.28;83.98;101132.13;5072844;28;20145;-27
2024/01/10 07:23:32;;;;;;;36.08;16.20;;;;;;;0.20;84.23;101131.81;5072862;28;20028;-26
2024/01/10 07:25:57;;;;;;;42.65;18.42;;;;;;;0.29;84.27;101135.63;5072198;28;20395;-26
2024/01/10 07:28:23;;;;;;;33.75;16.85;;;;;;;0.21;84.07;101130.88;5071993;28;20032;-26
2024/01/10 07:30:48;;;;;;;35.65;16.42;;;;;;;0.31;85.29;101142.41;5071787;28;20074;-27
2024/01/10 07:33:13;;;;;;;34.97;16.83;;;;;;;0.35;83.83;101143.88;5072289;28;20052;-28
2024/01/10 07:35:39;;;;;;;33.08;15.63;;;;;;;0.62;82.72;101142.13;5072163;28;20019;-27
2024/01/10 07:38:07;;;;;;;31.50;16.02;;;;;;;0.62;82.64;101152.59;5071887;28;20408;-27
2024/01/10 07:40:33;;;;;;;29.30;15.13;;;;;;;0.76;82.17;101136.75;5072276;28;20024;-27
2024/01/10 07:42:58;;;;;;;33.53;15.07;;;;;;;0.92;80.94;101152.28;5071620;28;20020;-28
2024/01/10 07:45:23;;;;;;;30.30;15.38;;;;;;;1.03;80.35;101152.38;5071912;28;20495;-27
2024/01/10 07:47:49;;;;;;;28.95;15.27;;;;;;;0.97;81.11;101152.78;5071639;28;20446;-27
2024/01/10 07:50:14;;;;;;;29.02;15.15;;;;;;;0.98;80.19;101155.28;5071729;28;20020;-26
2024/01/10 07:52:40;;;;;;;31.60;15.57;;;;;;;0.94;80.48;101151.22;5071365;28;20032;-27
2024/01/10 07:55:06;;;;;;;31.90;15.25;;;;;;;0.92;79.91;101157.53;5071771;28;20099;-26
2024/01/10 07:57:33;;;;;;;30.80;14.90;;;;;;;0.74;81.48;101159.59;5071533;28;20039;-27
2024/01/10 07:59:59;;;;;;;29.48;13.88;;;;;;;0.96;78.78;101154.56;5071326;28;20020;-27
2024/01/10 08:02:24;;;;;;;30.58;14.52;;;;;;;1.02;78.12;101160.34;5071651;28;20035;-27
2024/01/10 08:04:51;;;;;;;39.50;17.30;;;;;;;1.14;78.82;101152.47;5071324;28;20400;-26
2024/01/10 08:07:16;;;;;;;31.15;16.27;;;;;;;1.03;79.32;101157.63;5070975;28;20450;-31
2024/01/10 08:09:42;;;;;;;35.55;16.20;;;;;;;1.17;77.53;101159.25;5071644;28;20029;-28
2024/01/10 08:12:07;;;;;;;56.95;26.02;;;;;;;1.43;76.67;101157.41;5071571;28;20056;-27
2024/01/10 08:14:33;;;;;;;61.67;27.75;;;;;;;1.43;75.47;101161.81;5071392;28;20057;-30
2024/01/10 08:16:59;;;;;;;48.30;23.27;;;;;;;1.21;75.21;101165.97;5071295;28;20037;-27
2024/01/10 08:19:27;;;;;;;45.67;20.73;;;;;;;1.36;72.62;101162.25;5071411;28;20029;-27
2024/01/10 08:21:53;;;;;;;40.33;18.17;;;;;;;1.33;71.82;101161.63;5071375;28;20032;-28
2024/01/10 08:24:20;;;;;;;35.92;17.55;;;;;;;1.12;72.13;101167.47;5071208;28;20028;-29
2024/01/10 08:26:46;;;;;;;28.92;14.77;;;;;;;1.33;70.83;101165.13;5071337;28;20020;-29
2024/01/10 08:29:12;;;;;;;25.92;12.73;;;;;;;1.33;69.54;101148.50;5071424;28;20020;-28
2024/01/10 08:31:38;;;;;;;28.80;13.25;;;;;;;1.09;70.45;101157.19;5071071;28;20536;-27
2024/01/10 08:34:04;;;;;;;28.60;13.30;;;;;;;0.98;69.87;101154.47;5071177;28;20154;-29
2024/01/10 08:36:29;;;;;;;28.27;13.10;;;;;;;1.20;71.44;101156.44;5070537;28;20107;-27
2024/01/10 08:38:54;;;;;;;27.50;13.40;;;;;;;0.96;71.24;101157.19;5071383;28;20095;-26
2024/01/10 08:41:20;;;;;;;32.83;13.35;;;;;;;1.08;73.64;101149.41;5070923;28;20499;-27
2024/01/10 08:43:48;;;;;;;31.00;14.40;;;;;;;1.35;71.68;101154.47;5070647;28;20021;-27
2024/01/10 08:46:14;;;;;;;33.60;14.77;;;;;;;1.43;70.51;101159.19;5071179;28;20020;-27
2024/01/10 08:48:40;;;;;;;30.38;15.32;;;;;;;1.53;70.56;101158.44;5070515;28;20099;-27
2024/01/10 08:51:05;;;;;;;33.30;14.00;;;;;;;1.53;69.90;101152.34;5070994;28;20162;-28
2024/01/10 08:53:30;;;;;;;26.48;13.32;;;;;;;1.60;69.50;101157.97;5071045;28;20047;-27
2024/01/10 08:55:56;;;;;;;30.58;14.07;;;;;;;1.36;71.42;101156.19;5070539;28;20016;-27
2024/01/10 08:58:21;;;;;;;28.85;13.55;;;;;;;1.11;70.03;101149.22;5070911;28;20035;-27
2024/01/10 09:00:47;;;;;;;27.58;13.98;;;;;;;1.58;67.83;101141.50;5070768;28;20021;-27
2024/01/10 09:03:12;;;;;;;27.65;13.73;;;;;;;1.74;66.28;101144.72;5067844;28;20028;-27
2024/01/10 09:05:38;;;;;;;27.33;12.57;;;;;;;1.30;67.58;101140.88;5064640;28;20024;-26
2024/01/10 09:08:03;;;;;;;25.50;13.60;;;;;;;1.43;68.27;101139.06;5071538;28;20541;-27
2024/01/10 09:10:29;;;;;;;26.25;12.63;;;;;;;1.40;67.95;101141.06;5070921;28;20021;-30
2024/01/10 09:12:54;;;;;;;29.05;13.75;;;;;;;1.13;69.75;101140.28;5070349;28;20029;-27
2024/01/10 09:15:20;;;;;;;29.67;13.75;;;;;;;1.56;68.76;101136.38;5070647;28;20040;-26
2024/01/10 09:17:45;;;;;;;30.75;14.43;;;;;;;1.81;69.97;101140.69;5070565;28;20024;-26
2024/01/10 09:20:12;;;;;;;32.38;15.27;;;;;;;2.07;67.54;101133.47;5070130;28;20025;-27
2024/01/10 09:22:38;;;;;;;30.05;15.63;;;;;;;2.02;67.51;101132.16;5070561;28;20431;-31
2024/01/10 09:25:05;;;;;;;28.73;15.63;;;;;;;2.17;68.57;101131.03;5070619;28;20028;-28
2024/01/10 09:27:34;;;;;;;32.20;15.43;;;;;;;2.24;68.71;101123.50;5070760;28;20020;-26
2024/01/10 09:30:01;;;;;;;34.78;15.32;;;;;;;2.11;68.15;101126.22;5070720;28;20063;-27
2024/01/10 09:32:28;;;;;;;37.35;17.52;;;;;;;2.11;68.94;101128.84;5070796;28;20024;-28
2024/01/10 09:34:54;;;;;;;32.78;16.27;;;;;;;2.19;69.58;101129.13;5070275;28;20027;-26
2024/01/10 09:37:19;;;;;;;28.40;15.35;;;;;;;2.12;69.33;101118.22;5070561;28;20020;-26
2024/01/10 09:39:45;;;;;;;34.15;17.30;;;;;;;1.88;70.96;101123.50;5070335;28;20038;-27
2024/01/10 09:42:10;;;;;;;33.10;17.42;;;;;;;2.29;70.27;101130.09;5070462;28;20107;-26
2024/01/10 09:44:35;;;;;;;33.92;16.60;;;;;;;2.22;70.33;101128.88;5070256;28;20017;-27
2024/01/10 09:47:02;;;;;;;40.35;17.50;;;;;;;2.47;69.88;101122.59;5070477;28;20047;-26
2024/01/10 09:49:27;;;;;;;37.55;17.85;;;;;;;2.79;70.01;101113.19;5073576;28;20036;-27
2024/01/10 09:52:02;;;;;;;28.95;15.23;;;;;;;2.49;69.62;101104.91;5074672;28;20021;-27
2024/01/10 09:54:30;;;;;;;26.85;13.02;;;;;;;2.18;69.93;101102.97;5074528;28;20078;-27
2024/01/10 09:56:59;;;;;;;24.15;12.70;;;;;;;2.29;71.78;101109.09;5072825;28;20466;-27
2024/01/10 09:59:25;;;;;;;24.55;12.68;;;;;;;2.26;72.08;101103.22;5073227;28;20027;-26
2024/01/10 10:01:54;;;;;;;23.77;12.23;;;;;;;2.53;70.19;101106.38;5073570;28;20408;-28
2024/01/10 10:04:20;;;;;;;21.30;11.57;;;;;;;2.72;68.79;101097.91;5070189;28;20571;-42
2024/01/10 10:06:45;;;;;;;23.20;11.32;;;;;;;3.04;67.92;101105.03;5053371;28;20027;-42
2024/01/10 10:09:12;;;;;;;24.30;12.23;;;;;;;3.07;67.70;101102.19;5060173;28;20045;-39
2024/01/10 10:11:37;;;;;;;20.85;11.38;;;;;;;2.68;68.63;101087.72;5074803;28;20024;-40
2024/01/10 10:14:16;;;;;;;23.20;11.18;;;;;;;2.94;67.30;101094.41;5074616;28;20464;-42
2024/01/10 10:16:42;;;;;;;22.50;11.00;;;;;;;3.21;65.83;101087.09;5074053;28;20093;-40
2024/01/10 10:19:09;;;;;;;19.70;10.77;;;;;;;3.84;63.08;101089.88;5073580;28;20020;-39
2024/01/10 10:21:35;;;;;;;20.13;10.88;;;;;;;3.73;64.98;101088.13;5073407;28;20039;-39
2024/01/10 10:24:03;;;;;;;20.63;11.43;;;;;;;3.58;65.70;101079.72;5073121;28;20476;-42
2024/01/10 10:26:32;;;;;;;18.92;10.07;;;;;;;3.66;65.21;101082.53;5072982;28;20099;-44
2024/01/10 10:28:58;;;;;;;17.95;9.35;;;;;;;3.22;66.12;101073.81;5073425;28;20062;-41
2024/01/10 10:31:24;;;;;;;18.10;8.98;;;;;;;3.65;64.01;101070.31;5073465;28;20025;-42
2024/01/10 10:33:51;;;;;;;17.38;9.57;;;;;;;4.28;63.73;101070.38;5073699;28;20539;-40
2024/01/10 10:36:16;;;;;;;15.25;8.35;;;;;;;4.35;62.28;101057.47;5073302;28;20043;-39
2024/01/10 10:38:42;;;;;;;19.15;8.60;;;;;;;4.18;61.00;101061.53;5073413;28;20551;-46
2024/01/10 10:41:10;;;;;;;17.70;9.18;;;;;;;4.07;62.59;101059.84;5073710;28;20016;-40
2024/01/10 10:43:37;;;;;;;15.15;8.55;;;;;;;3.87;62.74;101060.66;5073460;28;20103;-44
2024/01/10 10:46:04;;;;;;;15.85;8.23;;;;;;;3.84;62.67;101039.84;5073214;28;20392;-39
2024/01/10 10:48:33;;;;;;;16.08;8.57;;;;;;;4.61;61.27;101054.44;5072708;28;20028;-39
2024/01/10 10:51:17;;;;;;;13.77;7.13;;;;;;;4.30;62.07;101051.75;5072856;28;20050;-42
2024/01/10 10:53:47;;;;;;;12.13;6.90;;;;;;;4.22;62.46;101049.78;5072599;28;20263;-40
2024/01/10 10:56:12;;;;;;;12.25;6.40;;;;;;;3.99;63.64;101041.19;5073020;28;20020;-41
2024/01/10 10:58:40;;;;;;;12.45;6.20;;;;;;;4.00;61.56;101034.97;5071398;28;20024;-41
2024/01/10 11:01:06;;;;;;;11.65;6.60;;;;;;;4.38;60.70;101037.94;5072829;28;20431;-41
2024/01/10 11:03:35;;;;;;;10.82;6.38;;;;;;;4.20;60.95;101037.72;5072816;28;20108;-41
2024/01/10 11:06:02;;;;;;;10.35;6.45;;;;;;;3.92;61.46;101016.31;5072694;28;20484;-38
2024/01/10 11:08:29;;;;;;;12.68;6.90;;;;;;;4.28;61.26;101022.94;5072932;28;20028;-44